• Join FlightAware (Why Join?)
  • Login
  • US Flag 
02:28AM EST


 

Airport Tracker/Info


-or-


 

Live Flight TrackerFlight Track Log ✈ CPT7773 ✈ 25-Jun-2013 ✈ KCOD - KCPR

Flight Track Log - Related Links

Times and Time Zones

All times are in EDT time to prevent confusion due to time zone crossing. See the CPT7773 flight status page for this flight to view local times or setup timezone preferences in your user account.

Time Position Orientation Groundspeed Altitude Reporting Facility
EDT Latitude Longitude Course Direction KTS MPH feet Rate Location/Type
08:40PM 44.3791 -108.7094 120° Southeast  Level FlightAware Approximate
08:41PM 44.3573 -108.6570 120° Southeast  Level FlightAware Approximate
08:42PM 44.3355 -108.6046 120° Southeast  Level FlightAware Approximate
08:43PM 44.3137 -108.5522 120° Southeast  Level FlightAware Approximate
08:44PM 44.2918 -108.4998 120° Southeast  Level FlightAware Approximate
08:45PM 44.2699 -108.4475 120° Southeast  Level FlightAware Approximate
08:46PM 44.2473 -108.3960 133° Southeast  Level FlightAware Approximate
08:47PM 44.2178 -108.3516 133° Southeast  Level FlightAware Approximate
08:48PM 44.1883 -108.3073 133° Southeast  Level FlightAware Approximate
08:49PM 44.1588 -108.2630 133° Southeast  Level FlightAware Approximate
08:50PM 44.1292 -108.2188 133° Southeast  Level FlightAware Approximate
08:51PM 44.0997 -108.1745 133° Southeast  Level FlightAware Approximate
08:52PM 44.0703 -108.1302 133° Southeast  Level FlightAware Approximate
08:53PM 44.0408 -108.0859 133° Southeast  Level FlightAware Approximate
08:54PM 44.0113 -108.0417 133° Southeast  Level FlightAware Approximate
08:55PM 43.9818 -107.9975 133° Southeast  Level FlightAware Approximate
08:56PM 43.9523 -107.9534 133° Southeast  Level FlightAware Approximate
08:57PM 43.9300 -107.9018 120° Southeast  Level FlightAware Approximate
08:58PM 43.9083 -107.8497 120° Southeast  Level FlightAware Approximate
08:59PM 43.8865 -107.7976 120° Southeast  Level FlightAware Approximate
09:00PM 43.8644 -107.7459 128° Southeast  Level FlightAware Approximate
09:01PM 43.8377 -107.6985 128° Southeast  Level FlightAware Approximate
09:02PM 43.8110 -107.6511 128° Southeast  Level FlightAware Approximate
09:03PM 43.7843 -107.6037 128° Southeast  Level FlightAware Approximate
09:04PM 43.7576 -107.5564 128° Southeast  Level FlightAware Approximate
09:05PM 43.7309 -107.5091 128° Southeast  Level FlightAware Approximate
09:05PM 43.7814 -107.5925 125° Southeast 170 196 11,000  Level Denver Center
09:06PM 43.7041 -107.4619 128° Southeast  Level FlightAware Approximate
09:07PM 43.6773 -107.4147 128° Southeast  Level FlightAware Approximate
09:07PM 43.7384 -107.5359 136° Southeast  Level Estimated
09:08PM 43.6505 -107.3676 128° Southeast  Level FlightAware Approximate
09:09PM 43.6259 -107.3183 125° Southeast  Level FlightAware Approximate
09:10PM 43.6012 -107.2690 125° Southeast  Level FlightAware Approximate
09:12PM 43.4933 -107.0283 137° Southeast 188 216 11,100  Level Denver Center
09:13PM 43.4617 -106.9708 127° Southeast 169 194 11,100 -60 Level Denver Center
09:14PM 43.5181 -107.2474 136° Southeast  Level Estimated
09:14PM 43.4333 -106.9208 128° Southeast 172 198 11,000  Level Denver Center
09:15PM 43.4865 -107.2064 137° Southeast  Level Estimated
09:15PM 43.4058 -106.8703 127° Southeast 172 198 11,000  Level Denver Center
09:16PM 43.4550 -107.1654 137° Southeast  Level Estimated
09:16PM 43.3597 -106.8269 146° Southeast 159 183 10,900  Level Denver Center
09:17PM 43.4234 -107.1244 137° Southeast  Level Estimated
09:17PM 43.3122 -106.7906 151° Southeast 166 191 10,100  Level Denver Center
09:18PM 43.2711 -106.7581 150° Southeast 172 198 10,000 -60 Descending Denver Center
09:19PM 43.2331 -106.7269 149° Southeast 171 197 10,000  Level Denver Center
09:20PM 43.1906 -106.6919 149° Southeast 165 190 10,000 -300 Level Denver Center
09:21PM 43.1547 -106.6583 146° Southeast 164 189 9,500 -540 Descending Denver Center
09:22PM 43.1119 -106.6081 139° Southeast 175 201 9,000 -540 Descending Denver Center
09:23PM 43.0767 -106.5664 139° Southeast 177 204 8,400 -600 Descending Denver Center
09:24PM 43.0339 -106.5194 141° Southeast 176 203 7,800 -540 Descending Denver Center
09:25PM 42.9983 -106.4819 142° Southeast 173 199 7,300 -420 Descending Denver Center
09:26PM 42.9658 -106.4397 136° Southeast 170 196 7,000 -300 Descending Denver Center
09:28PM 42.9000 -106.4500 160° South  Level FlightAware Approximate